Tuesday, July 22, 2014
23:44 UTC
  |  Log In   |  Register Free
Airport Search:

Raton Municipal/Crews Field Airport
(KRTN)

Raton Municipal/Crews Field Airport Diagram
No Airport Diagram Available

FAA data valid effective May 29, 2014 until July 24, 2014 (unless otherwise noted).

 
 
 
 
 
 
 
 
 
 
 
 
 
 

Current Aviation Weather for Raton Municipal/Crews Field Airport (KRTN)

The most recent METAR observation for KRTN was updated at: 2253 UTC
METAR Summary (Translated METAR)
KRTN
222253Z AUTO 09011KT 10SM SCT100 32/07 A3033 RMK AO2 PK WND 08027/2217 WSHFT 2140 SLP170 T03220072
KTAD
(32 nm NE from KRTN)
222154Z AUTO 08009G17KT 10SM FEW110 34/04 A3030 RMK AO2 WSHFT 2114 SLP161 T03390044
TAF
No TAF information found within 50 nm of KRTN
  Airport Weather Conditions for KRTN

 Current Weather at RTN
90° F
Partly Cloudy
East winds at 12.7 mph
RTN NOAA Radar

Pressure: 30.33 in
Humidity: 21%
Wind: East at 12.7 MPH (11 KT)
Dew Point: 45.0°F
Visibility: 10.00 mi


Airport Weather Forecast for KRTN

Translated METAR and TAF for KRTN
Translated METAR for KRTN (2337 UTC 22 July 2014)
found at http://aviationweather.gov/adds/metars/
 
METAR text: KRTN 222253Z AUTO 09011KT 10SM SCT100 32/07 A3033 RMK AO2 PK WND 08027/2217 WSHFT 2140 SLP170 T03220072
Conditions at: KRTN (RATON , NM, US) observed 2253 UTC 22 July 2014
Temperature: 32.2°C (90°F)
Dewpoint: 7.2°C (45°F) [RH = 21%]
Pressure (altimeter): 30.33 inches Hg (1027.2 mb)
[Sea-level pressure: 1017.0 mb]
Winds: from the E (90 degrees) at 13 MPH (11 knots; 5.7 m/s)
Visibility: 10 or more miles (16+ km)
Ceiling: at least 12,000 feet AGL
Clouds: scattered clouds at 10000 feet AGL
Weather: automated observation with no human augmentation;
there may or may not be significant weather present at this time
Translated TAF for KRTN

There is no translated TAF available for this airport

Find All Airport Services Find A Hotel Find A Rental Car Find A Golf Course Find A Restaurant $100 Hamburger



FBO's on the Field
FBO Company Facility Photos Services Transportation Aviation Fuel Prices: Prices include tax
Catering Weather Repair Courtesy Rental Type 100LL JetA JetA+ MOGAS 8087
 
Pegasus Aviation

This FBO has not yet been rated
FS:Phillips66
Last Updated: Jul-01
Login to update fuel prices
SS:
Contact Pegasus AviationMore FBO Information
 
Add another FBO Facility Photos Catering Weather Repair Courtesy Rental Type 100LL JetA JetA+ MOGAS 8087
Services Transportation Aviation Fuel Prices: Prices include tax


GlobalAir.com Airport Resource Center model-print
model-print
model-print
model-print